Terminal Aerodrome Forecast
Issued by NWS Lake Charles, LA

Home | Current Version | Previous Version | Text Only | Print | Product List | Glossary On
Versions: 1 2 3 4 5 6 7 8 9 10 11 12 13
883
FTUS44 KLCH 160523
TAFLFT
TAF
KLFT 160523Z 1606/1706 VRB05KT P6SM BKN100
     FM161500 09006KT P6SM SCT100
     FM170400 12009KT P6SM VCSH OVC025=

USA.gov is the U.S. government's official web portal to all federal, state and local government web resources and services.